Time;durP1;ratioP1;P1;durP2;ratioP2;P2;SDS_P1;SDS_P2;PMS_P1;PMS_P2;Temp;Humidity;BMP_temperature;BMP_pressure;BME280_temperature;BME280_humidity;BME280_pressure;Samples;Min_cycle;Max_cycle;Signal;HPM_P1;HPM_P2
2023/07/21 00:01:41;;;;;;;2.07;1.90;;;;;;;;;;5091545;28;20229;-85
2023/07/21 00:04:07;;;;;;;1.80;1.70;;;;;;;;;;5082922;28;20277;-85
2023/07/21 00:06:36;;;;;;;3.23;2.03;;;;;;;;;;5072828;28;20241;-85
2023/07/21 00:09:05;;;;;;;2.40;2.20;;;;;;;;;;5073133;28;20221;-85
2023/07/21 00:11:34;;;;;;;4.40;2.30;;;;;;;;;;5085786;28;20243;-86
2023/07/21 00:14:00;;;;;;;2.73;2.20;;;;;;;;;;5093184;28;20175;-85
2023/07/21 00:16:27;;;;;;;3.10;1.90;;;;;;;;;;5093191;28;20265;-84
2023/07/21 00:18:53;;;;;;;3.77;2.20;;;;;;;;;;5093248;28;20179;-85
2023/07/21 00:21:28;;;;;;;3.43;2.10;;;;;;;;;;5093240;28;20214;-85
2023/07/21 00:24:04;;;;;;;3.13;2.00;;;;;;;;;;5090488;28;20178;-86
2023/07/21 00:26:47;;;;;;;2.90;2.30;;;;;;;;;;5075776;28;20205;-85
2023/07/21 00:29:13;;;;;;;4.97;1.93;;;;;;;;;;5092987;28;20194;-85
2023/07/21 00:31:49;;;;;;;3.53;2.07;;;;;;;;;;5093335;28;20174;-84
2023/07/21 00:34:33;;;;;;;2.40;2.20;;;;;;;;;;5073245;28;20193;-84
2023/07/21 00:37:01;;;;;;;2.43;2.23;;;;;;;;;;5072524;28;20186;-85
2023/07/21 00:39:28;;;;;;;3.10;1.93;;;;;;;;;;5072708;28;20236;-86
2023/07/21 00:41:55;;;;;;;2.30;2.10;;;;;;;;;;5072906;28;20207;-84
2023/07/21 00:44:29;;;;;;;3.23;2.47;;;;;;;;;;5072954;28;20175;-85
2023/07/21 00:47:20;;;;;;;2.87;2.20;;;;;;;;;;5085600;28;20190;-86
2023/07/21 00:50:03;;;;;;;2.43;2.10;;;;;;;;;;5092916;28;20182;-86
2023/07/21 00:52:31;;;;;;;2.53;2.17;;;;;;;;;;5092784;28;20435;-87
2023/07/21 00:55:00;;;;;;;5.07;2.13;;;;;;;;;;5081357;28;20183;-85
2023/07/21 00:57:26;;;;;;;3.87;2.30;;;;;;;;;;5077326;28;20277;-86
2023/07/21 00:59:53;;;;;;;3.20;2.20;;;;;;;;;;5092611;28;20186;-86
2023/07/21 01:02:25;;;;;;;2.30;2.00;;;;;;;;;;5092598;28;20460;-86
2023/07/21 01:04:51;;;;;;;2.30;2.10;;;;;;;;;;5092574;28;20174;-85
2023/07/21 01:07:20;;;;;;;3.83;2.40;;;;;;;;;;5072601;28;20185;-85
2023/07/21 01:09:47;;;;;;;2.50;2.30;;;;;;;;;;5072556;28;20182;-85
2023/07/21 01:12:13;;;;;;;2.30;2.10;;;;;;;;;;5072460;28;20173;-86
2023/07/21 01:14:45;;;;;;;2.97;2.13;;;;;;;;;;5072684;28;20210;-85
2023/07/21 01:17:14;;;;;;;3.83;2.30;;;;;;;;;;5072204;28;20189;-85
2023/07/21 01:19:41;;;;;;;2.50;2.30;;;;;;;;;;5078654;28;20273;-86
2023/07/21 01:22:07;;;;;;;2.47;2.27;;;;;;;;;;5091784;28;20289;-86
2023/07/21 01:24:36;;;;;;;2.50;2.30;;;;;;;;;;5073011;28;20175;-86
2023/07/21 01:27:06;;;;;;;5.10;2.40;;;;;;;;;;5087140;28;20274;-85
2023/07/21 01:29:39;;;;;;;3.67;2.30;;;;;;;;;;5089289;28;20210;-85
2023/07/21 01:32:08;;;;;;;4.03;2.03;;;;;;;;;;5096255;28;20186;-86
2023/07/21 01:34:43;;;;;;;3.10;2.10;;;;;;;;;;5102938;28;20214;-86
2023/07/21 01:37:14;;;;;;;2.80;2.30;;;;;;;;;;5088766;28;20186;-86
2023/07/21 01:39:43;;;;;;;3.73;1.93;;;;;;;;;;5072719;28;20270;-86
2023/07/21 01:42:12;;;;;;;2.70;2.50;;;;;;;;;;5072813;28;20252;-87
2023/07/21 01:44:40;;;;;;;3.17;2.47;;;;;;;;;;5072922;28;20238;-86
2023/07/21 01:47:17;;;;;;;3.30;2.30;;;;;;;;;;5073903;28;20190;-87
2023/07/21 01:49:51;;;;;;;4.57;2.37;;;;;;;;;;5072500;28;20288;-86
2023/07/21 01:52:22;;;;;;;3.77;2.30;;;;;;;;;;5072084;28;20218;-86
2023/07/21 01:55:00;;;;;;;3.20;2.10;;;;;;;;;;5072467;28;20251;-87
2023/07/21 01:57:34;;;;;;;3.60;2.40;;;;;;;;;;5072705;28;20194;-85
2023/07/21 02:00:01;;;;;;;4.53;2.40;;;;;;;;;;5072069;28;20183;-86
2023/07/21 02:02:30;;;;;;;2.73;2.30;;;;;;;;;;5081362;28;20214;-86
2023/07/21 02:04:57;;;;;;;3.83;2.40;;;;;;;;;;5092176;28;20175;-86
2023/07/21 02:07:24;;;;;;;2.50;2.30;;;;;;;;;;5092134;28;20175;-85
2023/07/21 02:09:53;;;;;;;4.63;2.60;;;;;;;;;;5095806;28;20170;-86
2023/07/21 02:12:22;;;;;;;2.80;2.60;;;;;;;;;;5095121;28;20190;-87
2023/07/21 02:14:56;;;;;;;2.70;2.50;;;;;;;;;;5095936;28;20265;-86
2023/07/21 02:17:22;;;;;;;4.17;2.67;;;;;;;;;;5096390;28;20170;-86
2023/07/21 02:19:50;;;;;;;4.73;2.37;;;;;;;;;;5099502;28;20202;-86
2023/07/21 02:22:18;;;;;;;4.17;2.40;;;;;;;;;;5086479;28;20211;-86
2023/07/21 02:24:47;;;;;;;2.80;2.17;;;;;;;;;;5075518;28;20256;-86
2023/07/21 02:27:15;;;;;;;2.93;2.60;;;;;;;;;;5076388;28;20183;-86
2023/07/21 02:29:49;;;;;;;4.43;2.67;;;;;;;;;;5077489;28;20180;-86
2023/07/21 02:32:15;;;;;;;3.40;2.80;;;;;;;;;;5076407;28;20183;-87
2023/07/21 02:34:59;;;;;;;3.70;2.57;;;;;;;;;;5075595;28;20321;-87
2023/07/21 02:37:25;;;;;;;2.80;2.50;;;;;;;;;;5089890;28;20193;-86
2023/07/21 02:39:51;;;;;;;3.10;2.73;;;;;;;;;;5095316;28;20179;-86
2023/07/21 02:42:25;;;;;;;2.90;2.60;;;;;;;;;;5086454;28;20207;-86
2023/07/21 02:44:54;;;;;;;2.80;2.60;;;;;;;;;;5075091;28;20175;-88
2023/07/21 02:47:22;;;;;;;4.03;2.50;;;;;;;;;;5075118;28;20262;-86
2023/07/21 02:49:59;;;;;;;3.27;2.70;;;;;;;;;;5075063;28;20179;-85
2023/07/21 02:52:28;;;;;;;2.80;2.53;;;;;;;;;;5094069;28;20178;-90
2023/07/21 02:54:56;;;;;;;2.53;2.33;;;;;;;;;;5095927;28;20185;-91
2023/07/21 02:57:23;;;;;;;3.60;2.27;;;;;;;;;;5096231;28;20175;-91
2023/07/21 02:59:51;;;;;;;4.00;2.60;;;;;;;;;;5095810;28;20205;-90
2023/07/21 03:02:20;;;;;;;3.50;2.60;;;;;;;;;;5078955;28;20234;-90
2023/07/21 03:04:52;;;;;;;3.33;2.63;;;;;;;;;;5095536;28;20178;-90
2023/07/21 03:07:37;;;;;;;4.13;2.60;;;;;;;;;;5095592;28;20174;-90
2023/07/21 03:10:03;;;;;;;4.63;2.60;;;;;;;;;;5086347;28;20171;-86
2023/07/21 03:12:29;;;;;;;4.13;2.73;;;;;;;;;;5094610;28;20163;-87
2023/07/21 03:14:59;;;;;;;3.53;2.83;;;;;;;;;;5094566;28;20182;-86
2023/07/21 03:17:25;;;;;;;2.93;2.67;;;;;;;;;;5093145;28;20182;-87
2023/07/21 03:20:00;;;;;;;4.10;2.77;;;;;;;;;;5092628;28;20187;-87
2023/07/21 03:22:26;;;;;;;3.37;2.33;;;;;;;;;;5093164;28;20188;-86
2023/07/21 03:24:56;;;;;;;2.90;2.70;;;;;;;;;;5094717;28;20167;-88
2023/07/21 03:27:22;;;;;;;6.47;2.60;;;;;;;;;;5095798;28;20182;-87
2023/07/21 03:30:02;;;;;;;4.10;2.80;;;;;;;;;;5093784;28;20212;-87
2023/07/21 03:32:31;;;;;;;4.30;2.80;;;;;;;;;;5084261;28;20178;-86
2023/07/21 03:34:57;;;;;;;3.60;2.50;;;;;;;;;;5074652;28;20179;-86
2023/07/21 03:37:24;;;;;;;2.60;2.40;;;;;;;;;;5075498;28;20176;-86
2023/07/21 03:39:53;;;;;;;3.10;2.50;;;;;;;;;;5085118;28;20182;-87
2023/07/21 03:42:19;;;;;;;3.73;2.57;;;;;;;;;;5097396;28;20202;-87
2023/07/21 03:44:51;;;;;;;2.90;2.53;;;;;;;;;;5085909;28;20191;-87
2023/07/21 03:47:19;;;;;;;3.73;2.90;;;;;;;;;;5073579;28;20199;-86
2023/07/21 03:49:45;;;;;;;3.27;2.47;;;;;;;;;;5073627;28;20180;-86
2023/07/21 03:52:16;;;;;;;3.70;2.50;;;;;;;;;;5057093;28;20187;-87
2023/07/21 03:54:42;;;;;;;2.67;2.47;;;;;;;;;;5073622;28;20179;-87
2023/07/21 03:57:11;;;;;;;2.90;2.53;;;;;;;;;;5084354;28;20190;-87
2023/07/21 03:59:38;;;;;;;4.30;2.40;;;;;;;;;;5073683;28;20211;-86
2023/07/21 04:02:05;;;;;;;2.80;2.30;;;;;;;;;;5057163;28;20235;-86
2023/07/21 04:04:34;;;;;;;4.67;2.40;;;;;;;;;;5073293;28;20175;-86
2023/07/21 04:07:01;;;;;;;4.03;2.57;;;;;;;;;;5073281;28;20171;-86
2023/07/21 04:09:28;;;;;;;3.03;2.20;;;;;;;;;;5072839;28;20333;-87
2023/07/21 04:11:58;;;;;;;2.87;2.63;;;;;;;;;;5077428;28;20187;-87
2023/07/21 04:14:25;;;;;;;2.43;2.20;;;;;;;;;;5072260;28;20187;-87
2023/07/21 04:16:59;;;;;;;2.97;2.60;;;;;;;;;;5076377;28;20195;-86
2023/07/21 04:19:28;;;;;;;4.17;2.40;;;;;;;;;;5072014;28;20237;-86
2023/07/21 04:21:57;;;;;;;3.40;2.60;;;;;;;;;;5072715;28;20225;-87
2023/07/21 04:24:23;;;;;;;3.13;2.53;;;;;;;;;;5073172;28;20183;-86
2023/07/21 04:26:52;;;;;;;3.03;2.83;;;;;;;;;;5073193;28;20286;-85
2023/07/21 04:29:18;;;;;;;2.80;2.60;;;;;;;;;;5072859;28;20207;-85
2023/07/21 04:31:44;;;;;;;3.80;2.40;;;;;;;;;;5085033;28;20186;-85
2023/07/21 04:34:12;;;;;;;3.60;2.47;;;;;;;;;;5072513;28;20202;-85
2023/07/21 04:36:39;;;;;;;3.27;2.50;;;;;;;;;;5073246;28;20183;-86
2023/07/21 04:39:05;;;;;;;3.20;2.40;;;;;;;;;;5072598;28;20415;-86
2023/07/21 04:41:31;;;;;;;3.57;2.60;;;;;;;;;;5082247;28;20206;-86
2023/07/21 04:43:59;;;;;;;2.83;2.60;;;;;;;;;;5093823;28;20178;-84
2023/07/21 04:46:25;;;;;;;5.40;2.47;;;;;;;;;;5092744;28;20170;-85
2023/07/21 04:48:51;;;;;;;2.83;2.40;;;;;;;;;;5087680;28;20190;-85
2023/07/21 04:51:18;;;;;;;3.63;2.70;;;;;;;;;;5082475;28;20175;-86
2023/07/21 04:53:46;;;;;;;2.73;2.53;;;;;;;;;;5072962;28;20183;-85
2023/07/21 04:56:14;;;;;;;3.23;2.50;;;;;;;;;;5090586;28;20193;-85
2023/07/21 04:58:42;;;;;;;2.77;2.50;;;;;;;;;;5092966;28;20280;-85
2023/07/21 05:01:09;;;;;;;2.70;2.50;;;;;;;;;;5095661;28;20294;-86
2023/07/21 05:03:35;;;;;;;4.20;2.20;;;;;;;;;;5096300;28;20261;-85
2023/07/21 05:06:01;;;;;;;2.67;2.40;;;;;;;;;;5094851;28;20173;-85
2023/07/21 05:08:30;;;;;;;2.70;2.27;;;;;;;;;;5096072;28;20178;-86
2023/07/21 05:10:56;;;;;;;3.37;2.50;;;;;;;;;;5095503;28;20182;-85
2023/07/21 05:13:22;;;;;;;3.40;2.70;;;;;;;;;;5094212;28;20221;-85
2023/07/21 05:15:51;;;;;;;3.43;2.90;;;;;;;;;;5096534;28;20205;-85
2023/07/21 05:18:17;;;;;;;2.60;2.40;;;;;;;;;;5095735;28;20189;-85
2023/07/21 05:20:43;;;;;;;2.80;2.60;;;;;;;;;;5095880;28;20193;-85
2023/07/21 05:23:09;;;;;;;2.90;2.70;;;;;;;;;;5095995;28;20503;-85
2023/07/21 05:25:38;;;;;;;4.17;2.87;;;;;;;;;;5096540;28;20177;-85
2023/07/21 05:28:04;;;;;;;3.73;3.07;;;;;;;;;;5096262;28;20190;-85
2023/07/21 05:30:30;;;;;;;3.60;2.57;;;;;;;;;;5096295;28;20273;-84
2023/07/21 05:32:59;;;;;;;3.17;2.53;;;;;;;;;;5096124;28;20182;-85
2023/07/21 05:35:26;;;;;;;3.43;2.63;;;;;;;;;;5083131;28;20185;-85
2023/07/21 05:37:54;;;;;;;3.23;2.70;;;;;;;;;;5063652;28;20186;-85
2023/07/21 05:40:22;;;;;;;4.07;2.57;;;;;;;;;;5075805;28;20197;-86
2023/07/21 05:42:48;;;;;;;3.43;2.57;;;;;;;;;;5060420;28;20182;-85
2023/07/21 05:45:21;;;;;;;3.00;2.70;;;;;;;;;;5112496;28;20171;-86
2023/07/21 05:47:48;;;;;;;4.63;2.73;;;;;;;;;;5113749;28;20183;-86
2023/07/21 05:50:14;;;;;;;3.63;2.70;;;;;;;;;;5113548;28;20171;-86
2023/07/21 05:52:43;;;;;;;3.93;2.77;;;;;;;;;;5110225;28;20192;-85
2023/07/21 05:55:09;;;;;;;3.47;3.17;;;;;;;;;;5079984;28;20188;-86
2023/07/21 05:57:35;;;;;;;5.73;2.83;;;;;;;;;;5079376;28;20178;-86
2023/07/21 06:00:04;;;;;;;3.30;2.93;;;;;;;;;;5079711;28;20189;-86
2023/07/21 06:02:30;;;;;;;6.50;3.30;;;;;;;;;;5068076;28;20253;-85
2023/07/21 06:04:57;;;;;;;4.83;2.87;;;;;;;;;;5084865;28;20262;-84
2023/07/21 06:07:28;;;;;;;3.93;3.10;;;;;;;;;;5080949;28;20186;-84
2023/07/21 06:09:54;;;;;;;4.77;3.57;;;;;;;;;;5097560;28;20186;-84
2023/07/21 06:12:22;;;;;;;4.77;4.03;;;;;;;;;;5069461;28;20187;-84
2023/07/21 06:14:48;;;;;;;4.47;3.50;;;;;;;;;;5079335;28;20273;-83
2023/07/21 06:17:14;;;;;;;5.53;3.63;;;;;;;;;;5066519;28;20226;-84
2023/07/21 06:19:41;;;;;;;4.93;3.70;;;;;;;;;;5068878;28;20213;-83
2023/07/21 06:22:09;;;;;;;4.80;3.30;;;;;;;;;;5081679;28;20210;-83
2023/07/21 06:24:35;;;;;;;6.70;3.30;;;;;;;;;;5078917;28;20248;-83
2023/07/21 06:27:01;;;;;;;4.17;3.30;;;;;;;;;;5079341;28;20196;-83
2023/07/21 06:29:27;;;;;;;4.03;3.30;;;;;;;;;;5075364;28;20194;-83
2023/07/21 06:31:54;;;;;;;5.13;3.17;;;;;;;;;;5078746;28;20170;-82
2023/07/21 06:34:22;;;;;;;5.00;3.00;;;;;;;;;;5078968;28;20220;-83
2023/07/21 06:36:48;;;;;;;7.73;3.53;;;;;;;;;;5079855;28;20178;-82
2023/07/21 06:39:14;;;;;;;4.67;3.17;;;;;;;;;;5079145;28;20175;-83
2023/07/21 06:41:40;;;;;;;10.63;3.80;;;;;;;;;;5073750;28;20522;-84
2023/07/21 06:44:06;;;;;;;4.13;3.37;;;;;;;;;;5099219;28;20177;-83
2023/07/21 06:46:32;;;;;;;4.17;3.17;;;;;;;;;;5096498;28;20190;-83
2023/07/21 06:48:59;;;;;;;4.00;2.97;;;;;;;;;;5091680;28;20178;-82
2023/07/21 06:51:28;;;;;;;6.20;2.90;;;;;;;;;;5082104;28;20227;-83
2023/07/21 06:53:54;;;;;;;2.80;2.60;;;;;;;;;;5095303;28;20197;-83
2023/07/21 06:56:20;;;;;;;3.33;2.90;;;;;;;;;;5098409;28;20189;-83
2023/07/21 06:58:46;;;;;;;4.30;2.50;;;;;;;;;;5068883;28;20174;-83
2023/07/21 07:01:12;;;;;;;5.50;2.40;;;;;;;;;;5097213;28;20208;-83
2023/07/21 07:03:39;;;;;;;4.83;2.80;;;;;;;;;;5091419;28;20178;-83
2023/07/21 07:06:05;;;;;;;3.27;2.30;;;;;;;;;;5077929;28;20232;-83
2023/07/21 07:08:31;;;;;;;3.23;2.20;;;;;;;;;;5078264;28;20178;-83
2023/07/21 07:10:59;;;;;;;3.10;2.57;;;;;;;;;;5106139;28;20182;-82
2023/07/21 07:13:25;;;;;;;4.97;2.63;;;;;;;;;;5096710;28;20174;-83
2023/07/21 07:15:55;;;;;;;3.50;2.70;;;;;;;;;;5097734;28;20192;-83
2023/07/21 07:18:22;;;;;;;2.93;2.60;;;;;;;;;;5097805;28;20254;-83
2023/07/21 07:20:52;;;;;;;3.43;2.10;;;;;;;;;;5097372;28;20198;-83
2023/07/21 07:23:19;;;;;;;3.73;2.00;;;;;;;;;;5096740;28;20174;-83
2023/07/21 07:25:47;;;;;;;3.43;2.47;;;;;;;;;;5078133;28;20174;-83
2023/07/21 07:28:13;;;;;;;3.47;2.30;;;;;;;;;;5084077;28;20190;-83
2023/07/21 07:30:40;;;;;;;2.50;2.13;;;;;;;;;;5060843;28;20187;-83
2023/07/21 07:33:06;;;;;;;3.10;1.90;;;;;;;;;;5097374;28;20181;-83
2023/07/21 07:35:32;;;;;;;2.60;1.80;;;;;;;;;;5097285;28;20291;-83
2023/07/21 07:37:59;;;;;;;2.93;2.20;;;;;;;;;;5077172;28;20191;-83
2023/07/21 07:40:27;;;;;;;3.33;1.90;;;;;;;;;;5077268;28;20213;-83
2023/07/21 07:42:53;;;;;;;4.50;2.10;;;;;;;;;;5078697;28;20178;-82
2023/07/21 07:45:19;;;;;;;3.33;2.10;;;;;;;;;;5087304;28;20210;-83
2023/07/21 07:47:50;;;;;;;2.33;2.10;;;;;;;;;;5092806;28;20224;-84
2023/07/21 07:50:16;;;;;;;4.17;2.30;;;;;;;;;;5094570;28;20175;-83
2023/07/21 07:52:45;;;;;;;2.47;2.07;;;;;;;;;;5081835;28;20178;-82
2023/07/21 07:55:11;;;;;;;3.43;2.20;;;;;;;;;;5096413;28;20208;-83
2023/07/21 07:57:37;;;;;;;3.90;2.50;;;;;;;;;;5095682;28;20178;-83
2023/07/21 08:00:07;;;;;;;4.03;1.70;;;;;;;;;;5074902;28;20190;-83
2023/07/21 08:02:33;;;;;;;3.97;1.77;;;;;;;;;;5075961;28;20231;-83
2023/07/21 08:05:02;;;;;;;3.53;2.30;;;;;;;;;;5075403;28;20177;-85
2023/07/21 08:07:32;;;;;;;2.97;1.90;;;;;;;;;;5076054;28;20253;-83
2023/07/21 08:10:00;;;;;;;4.43;2.10;;;;;;;;;;5076734;28;20174;-82
2023/07/21 08:12:29;;;;;;;3.03;1.70;;;;;;;;;;5087451;28;20182;-83
2023/07/21 08:14:55;;;;;;;2.20;1.63;;;;;;;;;;5095358;28;20200;-85
2023/07/21 08:17:21;;;;;;;2.10;1.60;;;;;;;;;;5096397;28;20178;-83
2023/07/21 08:19:47;;;;;;;2.17;1.73;;;;;;;;;;5096105;28;20182;-83
2023/07/21 08:22:15;;;;;;;2.50;2.00;;;;;;;;;;5078724;28;20212;-85
2023/07/21 08:24:41;;;;;;;2.00;1.80;;;;;;;;;;5092194;28;20182;-81
2023/07/21 08:27:08;;;;;;;2.40;2.00;;;;;;;;;;5076310;28;20295;-84
2023/07/21 08:29:35;;;;;;;5.93;2.07;;;;;;;;;;5077514;28;20197;-86
2023/07/21 08:32:01;;;;;;;3.13;1.90;;;;;;;;;;5096286;28;20178;-84
2023/07/21 08:34:27;;;;;;;3.70;2.40;;;;;;;;;;5079625;28;20182;-85
2023/07/21 08:36:53;;;;;;;4.93;2.40;;;;;;;;;;5075480;28;20212;-84
2023/07/21 08:39:19;;;;;;;4.10;2.23;;;;;;;;;;5060441;28;20197;-84
2023/07/21 08:41:46;;;;;;;3.43;2.43;;;;;;;;;;5076812;28;20231;-83
2023/07/21 08:44:14;;;;;;;3.63;1.90;;;;;;;;;;5076271;28;20308;-83
2023/07/21 08:46:40;;;;;;;4.00;2.20;;;;;;;;;;5082273;28;20181;-84
2023/07/21 08:49:06;;;;;;;4.53;2.40;;;;;;;;;;5060235;28;20206;-83
2023/07/21 08:51:32;;;;;;;4.67;2.47;;;;;;;;;;5059728;28;20187;-83
2023/07/21 08:53:58;;;;;;;3.97;2.33;;;;;;;;;;5087415;28;20271;-83
2023/07/21 08:56:24;;;;;;;5.38;2.55;;;;;;;;;;5076817;28;20248;-83
2023/07/21 08:58:51;;;;;;;3.53;2.80;;;;;;;;;;5059798;28;20186;-82
2023/07/21 09:01:17;;;;;;;2.60;2.40;;;;;;;;;;5093951;28;20285;-83
2023/07/21 09:03:47;;;;;;;4.32;2.40;;;;;;;;;;5085769;28;20280;-83
2023/07/21 09:06:14;;;;;;;2.83;2.45;;;;;;;;;;5062250;28;20186;-84
2023/07/21 09:08:40;;;;;;;3.35;2.83;;;;;;;;;;5082149;28;20201;-83
2023/07/21 09:11:08;;;;;;;3.35;2.65;;;;;;;;;;5059472;28;20278;-83
2023/07/21 09:13:34;;;;;;;3.22;2.30;;;;;;;;;;5076207;28;20190;-83
2023/07/21 09:16:01;;;;;;;4.07;2.53;;;;;;;;;;5075850;28;20183;-83
2023/07/21 09:18:31;;;;;;;3.03;2.25;;;;;;;;;;5083420;28;20211;-84
2023/07/21 09:20:58;;;;;;;2.40;2.20;;;;;;;;;;5099618;28;20205;-83
2023/07/21 09:23:26;;;;;;;3.05;1.80;;;;;;;;;;5100356;28;20222;-84
2023/07/21 09:25:56;;;;;;;2.00;1.80;;;;;;;;;;5099479;28;20173;-84
2023/07/21 09:28:41;;;;;;;2.95;1.95;;;;;;;;;;5082610;28;20205;-84
2023/07/21 09:31:07;;;;;;;3.13;2.40;;;;;;;;;;5099595;28;20198;-84
2023/07/21 09:33:40;;;;;;;3.95;2.40;;;;;;;;;;5083128;28;20178;-83
2023/07/21 09:36:07;;;;;;;2.13;1.92;;;;;;;;;;5082309;28;20218;-84
2023/07/21 09:38:37;;;;;;;2.38;2.00;;;;;;;;;;5100200;28;20257;-84
2023/07/21 09:41:04;;;;;;;2.13;1.70;;;;;;;;;;5097188;28;20201;-84
2023/07/21 09:43:30;;;;;;;1.92;1.70;;;;;;;;;;5079192;28;20178;-85
2023/07/21 09:46:00;;;;;;;2.08;1.67;;;;;;;;;;5079698;28;20174;-83
2023/07/21 09:48:27;;;;;;;2.67;1.60;;;;;;;;;;5079561;28;20257;-84
2023/07/21 09:50:54;;;;;;;2.63;2.28;;;;;;;;;;5079060;28;20178;-84
2023/07/21 09:53:21;;;;;;;4.32;2.20;;;;;;;;;;5078551;28;20174;-84
2023/07/21 09:55:48;;;;;;;4.93;2.53;;;;;;;;;;5078514;28;20248;-84
2023/07/21 09:58:15;;;;;;;2.22;2.03;;;;;;;;;;5079032;28;20190;-84
2023/07/21 10:00:42;;;;;;;2.58;2.22;;;;;;;;;;5079120;28;20206;-84
2023/07/21 10:03:08;;;;;;;3.13;2.90;;;;;;;;;;5062232;28;20264;-83
2023/07/21 10:05:38;;;;;;;3.78;2.70;;;;;;;;;;5062291;28;20179;-83
2023/07/21 10:08:08;;;;;;;4.75;2.38;;;;;;;;;;5079421;28;20202;-84
2023/07/21 10:10:34;;;;;;;3.05;2.40;;;;;;;;;;5078909;28;20242;-83
2023/07/21 10:13:04;;;;;;;2.63;2.42;;;;;;;;;;5062285;28;20178;-83
2023/07/21 10:15:36;;;;;;;3.03;2.75;;;;;;;;;;5078793;28;20175;-83
2023/07/21 10:18:14;;;;;;;4.07;3.10;;;;;;;;;;5079384;28;20171;-84
2023/07/21 10:20:42;;;;;;;4.13;3.28;;;;;;;;;;5098724;28;20198;-83
2023/07/21 10:23:09;;;;;;;3.78;3.38;;;;;;;;;;5099219;28;20177;-84
2023/07/21 10:25:56;;;;;;;3.97;2.35;;;;;;;;;;5096032;28;20167;-84
2023/07/21 10:28:23;;;;;;;1.70;1.60;;;;;;;;;;5107696;28;20194;-84
2023/07/21 10:30:49;;;;;;;2.20;2.00;;;;;;;;;;5107514;28;20179;-84
2023/07/21 10:33:21;;;;;;;2.53;1.77;;;;;;;;;;5112615;28;20189;-83
2023/07/21 10:35:48;;;;;;;1.85;1.60;;;;;;;;;;5062769;28;20183;-83
2023/07/21 10:38:14;;;;;;;3.42;1.95;;;;;;;;;;5096613;28;20189;-84
2023/07/21 10:40:44;;;;;;;3.30;2.00;;;;;;;;;;5092619;28;20209;-83
2023/07/21 10:43:11;;;;;;;1.90;1.80;;;;;;;;;;5078888;28;20178;-84
2023/07/21 10:45:37;;;;;;;5.07;2.03;;;;;;;;;;5078612;28;20167;-83
2023/07/21 10:48:14;;;;;;;5.50;3.45;;;;;;;;;;5082358;28;20175;-84
2023/07/21 10:50:54;;;;;;;3.17;2.50;;;;;;;;;;5112677;28;20185;-83
2023/07/21 10:53:20;;;;;;;3.88;2.28;;;;;;;;;;5062948;28;20220;-84
2023/07/21 10:55:46;;;;;;;2.83;2.22;;;;;;;;;;5078078;28;20260;-85
2023/07/21 10:58:14;;;;;;;2.30;2.10;;;;;;;;;;5079504;28;20195;-84
2023/07/21 11:00:47;;;;;;;2.70;2.20;;;;;;;;;;5078743;28;20206;-83
2023/07/21 11:03:13;;;;;;;2.00;1.85;;;;;;;;;;5075621;28;20223;-84
2023/07/21 11:05:39;;;;;;;2.92;2.50;;;;;;;;;;5058104;28;20241;-84
2023/07/21 11:08:05;;;;;;;3.72;2.72;;;;;;;;;;5071912;28;20188;-84
2023/07/21 11:10:34;;;;;;;3.08;2.58;;;;;;;;;;5075160;28;20246;-83
2023/07/21 11:13:02;;;;;;;2.50;2.30;;;;;;;;;;5078572;28;20254;-84
2023/07/21 11:15:28;;;;;;;2.10;1.90;;;;;;;;;;5095186;28;20167;-84
2023/07/21 11:18:00;;;;;;;2.40;2.20;;;;;;;;;;5082862;28;20179;-85
2023/07/21 11:20:29;;;;;;;3.03;2.70;;;;;;;;;;5079243;28;20178;-84
2023/07/21 11:22:56;;;;;;;4.60;2.35;;;;;;;;;;5065673;28;20183;-85
2023/07/21 11:25:22;;;;;;;3.08;2.30;;;;;;;;;;5073883;28;20212;-84
2023/07/21 11:27:48;;;;;;;2.95;2.50;;;;;;;;;;5087798;28;20207;-84
2023/07/21 11:30:18;;;;;;;3.92;2.70;;;;;;;;;;5076205;28;20184;-85
2023/07/21 11:32:44;;;;;;;4.63;2.33;;;;;;;;;;5073480;28;20411;-84
2023/07/21 11:35:10;;;;;;;3.17;1.83;;;;;;;;;;5073171;28;20410;-85
2023/07/21 11:37:41;;;;;;;3.22;2.80;;;;;;;;;;5063371;28;20204;-85
2023/07/21 11:40:15;;;;;;;4.00;2.30;;;;;;;;;;5073465;28;20191;-84
2023/07/21 11:42:52;;;;;;;2.55;1.98;;;;;;;;;;5073699;28;20282;-84
2023/07/21 11:45:35;;;;;;;2.17;1.80;;;;;;;;;;5057392;28;20175;-86
2023/07/21 11:48:30;;;;;;;2.42;2.22;;;;;;;;;;5071895;28;20171;-85
2023/07/21 11:50:56;;;;;;;2.72;2.10;;;;;;;;;;5060863;28;20234;-85
2023/07/21 11:53:23;;;;;;;2.65;1.92;;;;;;;;;;5056887;28;20270;-84
2023/07/21 11:55:50;;;;;;;3.65;1.92;;;;;;;;;;5073591;28;20183;-85
2023/07/21 11:58:18;;;;;;;2.00;1.67;;;;;;;;;;5073501;28;20171;-84
2023/07/21 12:00:44;;;;;;;1.98;1.77;;;;;;;;;;5073667;28;20195;-85
2023/07/21 12:03:10;;;;;;;1.95;1.85;;;;;;;;;;5056792;28;20227;-85
2023/07/21 12:05:37;;;;;;;2.42;2.00;;;;;;;;;;5056759;28;20229;-84
2023/07/21 12:08:06;;;;;;;1.80;1.70;;;;;;;;;;5073300;28;20179;-85
2023/07/21 12:10:32;;;;;;;1.77;1.67;;;;;;;;;;5057391;28;20233;-84
2023/07/21 12:12:58;;;;;;;2.13;1.63;;;;;;;;;;5074469;28;20214;-85
2023/07/21 12:15:24;;;;;;;2.60;2.40;;;;;;;;;;5056855;28;20187;-84
2023/07/21 12:17:50;;;;;;;5.97;2.50;;;;;;;;;;5057719;28;20187;-84
2023/07/21 12:20:17;;;;;;;1.98;1.85;;;;;;;;;;5056295;28;20225;-85
2023/07/21 12:22:43;;;;;;;4.18;1.90;;;;;;;;;;5074131;28;20298;-85
2023/07/21 12:25:10;;;;;;;3.22;2.38;;;;;;;;;;5090073;28;20171;-84
2023/07/21 12:27:36;;;;;;;2.40;2.20;;;;;;;;;;5090179;28;20195;-84
2023/07/21 12:30:03;;;;;;;3.75;2.13;;;;;;;;;;5090262;28;20214;-84
2023/07/21 12:32:29;;;;;;;3.20;2.78;;;;;;;;;;5090187;28;20236;-84
2023/07/21 12:34:58;;;;;;;3.97;2.40;;;;;;;;;;5057111;28;20190;-86
2023/07/21 12:37:24;;;;;;;3.50;2.40;;;;;;;;;;5057199;28;20179;-83
2023/07/21 12:39:51;;;;;;;2.92;2.60;;;;;;;;;;5057891;28;20190;-84
2023/07/21 12:42:17;;;;;;;4.72;2.35;;;;;;;;;;5090240;28;20290;-83
2023/07/21 12:44:43;;;;;;;3.05;2.38;;;;;;;;;;5056343;28;20183;-84
2023/07/21 12:47:10;;;;;;;2.83;2.38;;;;;;;;;;5089592;28;20176;-84
2023/07/21 12:49:36;;;;;;;4.07;2.45;;;;;;;;;;5089554;28;20171;-84
2023/07/21 12:52:02;;;;;;;5.00;3.67;;;;;;;;;;5056214;28;20179;-85
2023/07/21 12:54:28;;;;;;;3.97;3.40;;;;;;;;;;5089469;28;20179;-87
2023/07/21 12:56:54;;;;;;;5.35;3.33;;;;;;;;;;5056236;28;20225;-85
2023/07/21 12:59:20;;;;;;;3.03;2.70;;;;;;;;;;5056034;28;20183;-85
2023/07/21 13:01:46;;;;;;;6.20;3.00;;;;;;;;;;5090716;28;20206;-85
2023/07/21 13:04:15;;;;;;;5.65;3.25;;;;;;;;;;5059566;28;20256;-85
2023/07/21 13:06:42;;;;;;;3.13;2.80;;;;;;;;;;5092766;28;20171;-85
2023/07/21 13:09:09;;;;;;;4.88;2.95;;;;;;;;;;5059310;28;20209;-84
2023/07/21 13:11:35;;;;;;;3.80;2.70;;;;;;;;;;5093704;28;20202;-84
2023/07/21 13:14:01;;;;;;;3.97;2.60;;;;;;;;;;5095960;28;20178;-87
2023/07/21 13:16:27;;;;;;;3.50;3.20;;;;;;;;;;5096055;28;20184;-87
2023/07/21 13:18:53;;;;;;;10.80;3.80;;;;;;;;;;5096006;28;20174;-87
2023/07/21 13:21:19;;;;;;;5.97;3.63;;;;;;;;;;5095934;28;20209;-86
2023/07/21 13:23:45;;;;;;;7.13;4.13;;;;;;;;;;5096545;28;20260;-85
2023/07/21 13:26:11;;;;;;;6.68;3.88;;;;;;;;;;5096054;28;20208;-86
2023/07/21 13:28:37;;;;;;;4.72;3.17;;;;;;;;;;5096350;28;20197;-86
2023/07/21 13:31:06;;;;;;;4.80;3.10;;;;;;;;;;5080044;28;20181;-87
2023/07/21 13:33:32;;;;;;;4.25;3.20;;;;;;;;;;5074127;28;20183;-86
2023/07/21 13:35:58;;;;;;;4.70;3.55;;;;;;;;;;5071558;28;20186;-86
2023/07/21 13:38:25;;;;;;;4.97;3.40;;;;;;;;;;5061397;28;20178;-87
2023/07/21 13:40:51;;;;;;;6.00;3.85;;;;;;;;;;5083060;28;20270;-86
2023/07/21 13:43:17;;;;;;;5.75;4.07;;;;;;;;;;5059304;28;20190;-87
2023/07/21 13:45:43;;;;;;;4.53;3.80;;;;;;;;;;5109003;28;20171;-87
2023/07/21 13:48:09;;;;;;;4.80;4.10;;;;;;;;;;5058769;28;20213;-85
2023/07/21 13:50:35;;;;;;;4.93;4.35;;;;;;;;;;5108714;28;20210;-86
2023/07/21 13:53:01;;;;;;;5.40;4.63;;;;;;;;;;5057978;28;20206;-87
2023/07/21 13:55:27;;;;;;;5.13;4.72;;;;;;;;;;5058839;28;20190;-87
2023/07/21 13:57:54;;;;;;;7.33;5.27;;;;;;;;;;5106081;28;20182;-89
2023/07/21 14:00:21;;;;;;;6.83;5.97;;;;;;;;;;5059461;28;20241;-87
2023/07/21 14:02:48;;;;;;;6.67;5.97;;;;;;;;;;5088995;28;20313;-87
2023/07/21 14:05:16;;;;;;;7.17;6.47;;;;;;;;;;5092907;28;20178;-87
2023/07/21 14:07:44;;;;;;;6.70;5.90;;;;;;;;;;5099942;28;20214;-87
2023/07/21 14:10:11;;;;;;;8.53;6.50;;;;;;;;;;5078546;28;20187;-85
2023/07/21 14:12:37;;;;;;;8.33;6.80;;;;;;;;;;5062667;28;20186;-85
2023/07/21 14:15:03;;;;;;;8.80;8.07;;;;;;;;;;5062155;28;20505;-86
2023/07/21 14:17:29;;;;;;;7.73;7.03;;;;;;;;;;5062411;28;20206;-85
2023/07/21 14:19:55;;;;;;;8.63;7.77;;;;;;;;;;5095740;28;20201;-85
2023/07/21 14:22:21;;;;;;;9.10;8.30;;;;;;;;;;5082455;28;20217;-84
2023/07/21 14:24:47;;;;;;;9.38;7.75;;;;;;;;;;5077610;28;20416;-84
2023/07/21 14:27:13;;;;;;;8.40;7.60;;;;;;;;;;5093849;28;20411;-85
2023/07/21 14:29:39;;;;;;;8.10;7.30;;;;;;;;;;5082140;28;20177;-85
2023/07/21 14:32:05;;;;;;;8.53;7.80;;;;;;;;;;5082262;28;20269;-85
2023/07/21 14:34:31;;;;;;;8.70;7.70;;;;;;;;;;5082318;28;20181;-84
2023/07/21 14:36:58;;;;;;;7.57;6.87;;;;;;;;;;5081817;28;20205;-84
2023/07/21 14:39:25;;;;;;;8.10;7.40;;;;;;;;;;5082021;28;20181;-84
2023/07/21 14:41:51;;;;;;;7.30;6.70;;;;;;;;;;5082347;28;20217;-85
2023/07/21 14:44:17;;;;;;;8.00;7.20;;;;;;;;;;5082149;28;20174;-86
2023/07/21 14:46:43;;;;;;;5.87;5.20;;;;;;;;;;5098925;28;20189;-85
2023/07/21 14:49:10;;;;;;;5.90;5.40;;;;;;;;;;5081728;28;20265;-86